Terminal Aerodrome Forecast
Issued by NWS Riverton, WY

Home | Current Version | Previous Version | Text Only | Print | Product List | Glossary On
Versions: 1 2 3 4 5 6 7 8 9 10 11 12
000
FTUS45 KRIW 051720
TAFRIW
TAF
KRIW 051720Z 0518/0618 VRB06KT P6SM BKN100
     FM052100 03010KT P6SM VCTS SCT030CB BKN060
     FM060200 01014KT 4SM -SHRA BR SCT007 OVC015
     FM061600 02008KT 5SM -SHRA BR SCT010 OVC020=

USA.gov is the U.S. government's official web portal to all federal, state and local government web resources and services.